Swiss Alp, Texas
Current Conditions -  °F | °C
As of 4:55 PM on Thursday 23 Oct 2014 (Local Time) from K3T5 Reporting Station
Clear Clear  
Wind Chill: 81°   Ceiling: Unl
Heat Index: 82°   Visibility: 7mi
Dew Point: 60°   Wind: 0mph
Humidity: 48%   Direction: NA
Pressure: 30.04"   Gusts: NA
Location:  29.7125°N, 96.9231°W
Report Text: K3T5 232155Z AUTO 00000KT 7SM CLR 27/16 A3004 RMK AO2 T02730155
Loading
Personal Weather Stations






























Interactive Weather Map
Tropical Storm Tracking
New forecast layout! Learn more

10-Day Weather Forecast

Advertisements
Track Severe Weather on mobile